Time;durP1;ratioP1;P1;durP2;ratioP2;P2;SDS_P1;SDS_P2;PMS_P1;PMS_P2;Temp;Humidity;BMP_temperature;BMP_pressure;BME280_temperature;BME280_humidity;BME280_pressure;Samples;Min_cycle;Max_cycle;Signal;HPM_P1;HPM_P2
2021/04/28 00:02:19;;;;;;;;;;;;;;;;;;;;;
2021/04/28 00:05:17;;;;;;;;;;;;;;;;;;;;;
2021/04/28 00:07:59;;;;;;;;;;;;;;;;;;;;;
2021/04/28 00:10:52;;;;;;;;;;;;;;;;;;;;;
2021/04/28 00:13:43;;;;;;;;;;;;;;;;;;;;;
2021/04/28 00:16:44;;;;;;;9.23;3.83;;;3.10;94.40;;;;;;6152383;23;20826;-82
2021/04/28 00:22:33;;;;;;;8.53;3.73;;;3.00;92.20;;;;;;6239845;23;20425;-82
2021/04/28 00:25:19;;;;;;;10.73;4.03;;;2.90;95.80;;;;;;6245020;23;20445;-81
2021/04/28 00:28:19;;;;;;;16.00;4.27;;;3.00;98.90;;;;;;6245643;23;20427;-82
2021/04/28 00:31:03;;;;;;;8.33;3.13;;;3.00;96.80;;;;;;6245686;23;20465;-82
2021/04/28 00:34:02;;;;;;;9.90;4.47;;;3.00;96.10;;;;;;6245849;23;20457;-82
2021/04/28 00:36:45;;;;;;;;;;;;;;;;;;;;;
2021/04/28 00:39:51;;;;;;;;;;;;;;;;;;;;;
2021/04/28 00:43:03;;;;;;;;;;;;;;;;;;;;;
2021/04/28 00:52:02;;;;;;;7.03;2.77;;;2.90;93.90;;;;;;6076360;23;20512;-82
2021/04/28 00:54:44;;;;;;;9.07;3.43;;;2.90;97.20;;;;;;6202019;23;20484;-82
2021/04/28 00:57:43;;;;;;;12.00;3.67;;;2.80;95.30;;;;;;6246072;23;20399;-82
2021/04/28 01:03:54;;;;;;;;;;;;;;;;;;;;;
2021/04/28 01:09:48;;;;;;;;;;;;;;;;;;;;;
2021/04/28 01:12:32;;;;;;;8.55;3.58;;;2.60;99.50;;;;;;6217414;22;20403;-81
2021/04/28 01:15:18;;;;;;;8.88;3.42;;;2.70;99.90;;;;;;6257403;23;20164;-82
2021/04/28 01:18:09;;;;;;;8.77;3.23;;;2.50;99.90;;;;;;6247476;23;20157;-81
2021/04/28 01:20:46;;;;;;;8.30;3.63;;;2.50;99.90;;;;;;6247408;23;20482;-82
2021/04/28 01:23:26;;;;;;;16.00;5.33;;;2.50;99.90;;;;;;6257078;23;20729;-81
2021/04/28 01:26:15;;;;;;;11.03;4.30;;;2.50;99.90;;;;;;6255863;23;20415;-81
2021/04/28 01:29:01;;;;;;;;;;;;;;;;;;;;;
2021/04/28 01:31:50;;;;;;;9.57;4.70;;;2.50;99.90;;;;;;6154565;23;20421;-81
2021/04/28 01:34:28;;;;;;;14.27;4.00;;;2.40;99.90;;;;;;6238163;23;20442;-82
2021/04/28 01:37:15;;;;;;;;;;;;;;;;;;;;;
2021/04/28 01:42:50;;;;;;;;;;;;;;;;;;;;;
2021/04/28 01:45:29;;;;;;;7.43;4.60;;;2.20;99.90;;;;;;6248500;23;20403;-82
2021/04/28 01:48:11;;;;;;;;;;;;;;;;;;;;;
2021/04/28 01:51:12;;;;;;;;;;;;;;;;;;;;;
2021/04/28 01:54:13;;;;;;;;;;;;;;;;;;;;;
2021/04/28 01:56:54;;;;;;;8.70;5.80;;;2.00;99.90;;;;;;6224129;23;20403;-81
2021/04/28 01:59:44;;;;;;;11.50;5.95;;;1.90;99.90;;;;;;6256671;23;20469;-82
2021/04/28 02:02:34;;;;;;;15.25;5.80;;;1.80;99.90;;;;;;6066089;23;20180;-82
2021/04/28 02:08:27;;;;;;;;;;;;;;;;;;;;;
2021/04/28 02:11:19;;;;;;;;;;;;;;;;;;;;;
2021/04/28 02:14:11;;;;;;;;;;;;;;;;;;;;;
2021/04/28 02:17:11;;;;;;;7.00;4.03;;;1.80;99.90;;;;;;6243019;23;20755;-81
2021/04/28 02:20:20;;;;;;;9.35;6.00;;;1.80;99.90;;;;;;6065817;23;20421;-82
2021/04/28 02:26:05;;;;;;;;;;;;;;;;;;;;;
2021/04/28 02:29:09;;;;;;;9.02;5.38;;;1.70;99.90;;;;;;6249078;23;20192;-81
2021/04/28 02:31:49;;;;;;;;;;;;;;;;;;;;;
2021/04/28 02:35:06;;;;;;;;;;;;;;;;;;;;;
2021/04/28 02:37:37;;;;;;;15.23;6.40;;;1.80;99.90;;;;;;6245492;23;20414;-82
2021/04/28 02:40:06;;;;;;;13.60;6.32;;;1.70;99.90;;;;;;6254971;23;20399;-82
2021/04/28 02:43:22;;;;;;;;;;;;;;;;;;;;;
2021/04/28 02:46:00;;;;;;;8.93;5.83;;;1.80;99.90;;;;;;6240605;23;20791;-81
2021/04/28 02:48:32;;;;;;;10.20;5.03;;;1.90;99.90;;;;;;6245894;23;20442;-82
2021/04/28 02:51:12;;;;;;;;;;;;;;;;;;;;;
2021/04/28 02:53:52;;;;;;;;;;;;;;;;;;;;;
2021/04/28 02:56:24;;;;;;;11.32;5.00;;;1.60;99.90;;;;;;6241458;23;20168;-82
2021/04/28 02:58:54;;;;;;;8.40;5.37;;;1.70;99.90;;;;;;6256203;23;20168;-82
2021/04/28 03:01:37;;;;;;;8.45;4.97;;;1.70;99.90;;;;;;6256640;23;20906;-82
2021/04/28 03:04:12;;;;;;;9.20;5.80;;;1.70;99.90;;;;;;6256580;23;20178;-82
2021/04/28 03:07:22;;;;;;;8.10;5.40;;;1.70;99.90;;;;;;6255674;23;20440;-81
2021/04/28 03:09:50;;;;;;;10.23;6.23;;;1.60;99.90;;;;;;6245777;23;20435;-81
2021/04/28 03:12:28;;;;;;;8.32;5.65;;;1.50;99.90;;;;;;6244802;22;20400;-81
2021/04/28 03:15:04;;;;;;;16.30;6.60;;;1.50;99.90;;;;;;6256133;23;20161;-81
2021/04/28 03:18:02;;;;;;;10.05;5.95;;;1.50;99.90;;;;;;6256109;23;20439;-81
2021/04/28 03:20:53;;;;;;;;;;;;;;;;;;;;;
2021/04/28 03:26:53;;;;;;;8.43;5.80;;;1.40;99.90;;;;;;6241509;23;20404;-81
2021/04/28 03:29:31;;;;;;;;;;;;;;;;;;;;;
2021/04/28 03:32:10;;;;;;;11.30;7.27;;;1.40;99.90;;;;;;6252807;23;20495;-82
2021/04/28 03:35:03;;;;;;;11.43;8.87;;;1.40;99.90;;;;;;6245926;23;20399;-82
2021/04/28 03:37:45;;;;;;;;;;;;;;;;;;;;;
2021/04/28 03:40:32;;;;;;;11.13;8.47;;;1.40;99.90;;;;;;6243614;23;20398;-82
2021/04/28 03:43:07;;;;;;;11.73;9.60;;;1.50;99.90;;;;;;6249896;23;20748;-82
2021/04/28 03:45:42;;;;;;;9.97;9.07;;;1.50;99.90;;;;;;6245849;23;20399;-81
2021/04/28 03:48:21;;;;;;;12.00;9.60;;;1.60;99.90;;;;;;6245650;23;20739;-82
2021/04/28 03:51:07;;;;;;;10.50;8.85;;;1.50;99.90;;;;;;6256060;23;20465;-82
2021/04/28 03:56:33;;;;;;;10.77;7.73;;;1.20;99.90;;;;;;6241448;23;20412;-81
2021/04/28 03:59:09;;;;;;;11.73;9.47;;;1.10;99.90;;;;;;6256097;23;20700;-82
2021/04/28 04:01:46;;;;;;;11.50;9.82;;;1.10;99.90;;;;;;6245409;23;20399;-82
2021/04/28 04:04:21;;;;;;;12.30;9.90;;;1.10;99.90;;;;;;6244873;23;20182;-81
2021/04/28 04:09:57;;;;;;;;;;;;;;;;;;;;;
2021/04/28 04:12:37;;;;;;;11.23;10.03;;;1.30;99.90;;;;;;6182110;22;20215;-82
2021/04/28 04:15:08;;;;;;;11.73;9.20;;;1.20;99.90;;;;;;6255996;23;20403;-81
2021/04/28 04:17:44;;;;;;;9.20;8.10;;;1.30;99.90;;;;;;6256752;23;20411;-83
2021/04/28 04:20:26;;;;;;;10.23;9.13;;;1.40;99.90;;;;;;6257737;23;20438;-81
2021/04/28 04:23:09;;;;;;;14.80;12.10;;;1.50;99.90;;;;;;6204433;23;20411;-81
2021/04/28 04:25:44;;;;;;;13.40;10.73;;;1.50;99.90;;;;;;6246382;23;20437;-81
2021/04/28 04:28:20;;;;;;;14.65;11.50;;;1.40;99.90;;;;;;6257634;23;20870;-81
2021/04/28 04:30:53;;;;;;;11.25;10.15;;;1.40;99.90;;;;;;6255986;23;20164;-82
2021/04/28 04:33:57;;;;;;;10.97;9.40;;;1.40;99.90;;;;;;6257441;23;20322;-82
2021/04/28 04:36:40;;;;;;;10.98;9.85;;;1.30;99.90;;;;;;6190921;23;21053;-81
2021/04/28 04:39:37;;;;;;;12.70;11.50;;;1.40;99.90;;;;;;6134252;23;20175;-81
2021/04/28 04:42:13;;;;;;;13.15;10.68;;;1.40;99.90;;;;;;6123827;23;20485;-81
2021/04/28 04:44:46;;;;;;;15.50;11.82;;;1.40;99.90;;;;;;6124886;23;20193;-82
2021/04/28 04:47:30;;;;;;;;;;;;;;;;;;;;;
2021/04/28 04:50:07;;;;;;;9.80;8.90;;;1.50;99.90;;;;;;6085014;23;20254;-82
2021/04/28 04:52:42;;;;;;;15.85;11.60;;;1.50;99.90;;;;;;6124978;23;20159;-81
2021/04/28 04:56:04;;;;;;;13.85;12.43;;;1.50;99.90;;;;;;6123456;23;20521;-82
2021/04/28 04:58:31;;;;;;;17.27;13.80;;;1.70;99.90;;;;;;6046853;23;20563;-77
2021/04/28 05:00:57;;;;;;;13.00;11.80;;;1.90;99.90;;;;;;6139284;23;20416;-76
2021/04/28 05:03:24;;;;;;;15.87;14.43;;;1.80;99.90;;;;;;6216834;23;20736;-79
2021/04/28 05:05:50;;;;;;;14.88;13.38;;;2.00;99.90;;;;;;6217121;23;20511;-81
2021/04/28 05:08:18;;;;;;;12.55;11.30;;;2.00;99.90;;;;;;6216926;23;20181;-80
2021/04/28 05:10:44;;;;;;;20.37;12.10;;;2.10;99.90;;;;;;6225546;23;20196;-81
2021/04/28 05:13:11;;;;;;;18.03;13.87;;;2.20;99.90;;;;;;6216761;23;20442;-80
2021/04/28 05:15:38;;;;;;;14.33;11.50;;;2.40;99.90;;;;;;6216780;23;20567;-81
2021/04/28 05:18:05;;;;;;;10.83;9.73;;;2.40;99.90;;;;;;6226916;23;20408;-81
2021/04/28 05:20:33;;;;;;;16.13;14.63;;;2.50;99.90;;;;;;6227227;23;20405;-80
2021/04/28 05:23:02;;;;;;;17.40;15.80;;;2.70;99.90;;;;;;6226749;23;20404;-81
2021/04/28 05:25:47;;;;;;;22.93;21.23;;;2.90;99.90;;;;;;6215341;23;20403;-81
2021/04/28 05:28:17;;;;;;;12.17;8.50;;;3.40;99.90;;;;;;6216480;23;20729;-81
2021/04/28 05:30:44;;;;;;;14.33;6.00;;;3.90;99.90;;;;;;6216816;23;20408;-81
2021/04/28 05:33:10;;;;;;;10.83;4.57;;;4.40;99.90;;;;;;6216731;23;20404;-81
2021/04/28 05:35:39;;;;;;;14.70;5.90;;;4.80;99.90;;;;;;6227002;23;20416;-82
2021/04/28 05:38:05;;;;;;;15.10;6.40;;;5.20;99.90;;;;;;6216769;23;20415;-81
2021/04/28 05:40:34;;;;;;;11.27;4.37;;;5.90;97.40;;;;;;6215400;23;20400;-83
2021/04/28 05:43:02;;;;;;;16.37;4.50;;;6.70;71.90;;;;;;6226685;23;20415;-82
2021/04/28 05:45:29;;;;;;;17.00;5.07;;;7.30;46.80;;;;;;6226691;23;20458;-82
2021/04/28 05:47:55;;;;;;;17.50;5.70;;;7.90;40.00;;;;;;6216681;23;20451;-81
2021/04/28 05:50:23;;;;;;;18.53;5.40;;;8.50;26.70;;;;;;6226481;23;20407;-83
2021/04/28 05:52:55;;;;;;;20.37;4.90;;;8.70;26.90;;;;;;6226589;23;20699;-82
2021/04/28 05:55:27;;;;;;;19.97;4.90;;;9.30;22.70;;;;;;6215175;23;20400;-83
2021/04/28 05:57:55;;;;;;;17.47;5.13;;;9.60;19.00;;;;;;6220532;23;20425;-81
2021/04/28 06:00:22;;;;;;;23.90;4.60;;;10.10;14.50;;;;;;6216789;23;20779;-81
2021/04/28 06:02:49;;;;;;;22.83;7.23;;;10.10;14.50;;;;;;6226239;23;20408;-80
2021/04/28 06:05:16;;;;;;;19.53;4.17;;;10.60;14.30;;;;;;6216550;23;20435;-82
2021/04/28 06:07:45;;;;;;;21.93;5.40;;;10.90;10.00;;;;;;6216065;23;20408;-81
2021/04/28 06:10:14;;;;;;;18.77;4.70;;;11.00;8.40;;;;;;6225190;23;20453;-80
2021/04/28 06:12:43;;;;;;;20.67;5.30;;;11.30;8.70;;;;;;6225935;23;20770;-82
2021/04/28 06:15:12;;;;;;;19.70;4.53;;;11.10;5.90;;;;;;6216497;23;20457;-82
2021/04/28 06:17:40;;;;;;;22.60;4.67;;;11.20;4.20;;;;;;6216028;23;20412;-82
2021/04/28 06:20:08;;;;;;;22.77;5.70;;;11.10;4.00;;;;;;6216606;23;20412;-81
2021/04/28 06:22:35;;;;;;;24.73;5.83;;;11.00;5.70;;;;;;6216269;23;20403;-82
2021/04/28 06:25:01;;;;;;;21.00;6.30;;;10.70;5.50;;;;;;6216037;23;20407;-81
2021/04/28 06:27:28;;;;;;;20.70;5.70;;;10.40;7.90;;;;;;6225117;23;20421;-82
2021/04/28 06:29:54;;;;;;;19.30;5.33;;;10.30;11.10;;;;;;6216014;23;20445;-82
2021/04/28 06:32:24;;;;;;;14.40;4.30;;;10.20;11.20;;;;;;6216078;23;20404;-81
2021/04/28 06:34:50;;;;;;;15.17;5.00;;;10.00;9.20;;;;;;6225964;23;20419;-82
2021/04/28 06:37:17;;;;;;;15.03;5.57;;;10.00;12.50;;;;;;6225984;23;20414;-84
2021/04/28 06:39:43;;;;;;;17.43;5.43;;;9.90;13.20;;;;;;6226156;23;20411;-83
2021/04/28 06:42:09;;;;;;;18.53;5.20;;;9.70;11.70;;;;;;6224416;23;20470;-82
2021/04/28 06:44:49;;;;;;;14.60;4.63;;;9.70;10.50;;;;;;6225930;23;20904;-82
2021/04/28 06:47:16;;;;;;;16.33;7.17;;;9.70;10.00;;;;;;6225753;23;20409;-82
2021/04/28 06:49:51;;;;;;;14.13;5.10;;;9.80;11.00;;;;;;6215570;23;20967;-81
2021/04/28 06:52:18;;;;;;;14.30;5.23;;;9.80;8.20;;;;;;6216094;23;20409;-81
2021/04/28 06:54:50;;;;;;;14.10;4.90;;;9.80;9.90;;;;;;6216222;23;20408;-81
2021/04/28 06:57:16;;;;;;;17.03;6.17;;;9.90;9.00;;;;;;6214589;23;20429;-81
2021/04/28 06:59:47;;;;;;;13.50;5.03;;;9.90;7.90;;;;;;6216110;23;20401;-82
2021/04/28 07:02:19;;;;;;;12.93;5.30;;;9.90;8.70;;;;;;6215803;23;20420;-82
2021/04/28 07:04:46;;;;;;;16.73;4.63;;;10.00;7.30;;;;;;6215990;23;20430;-81
2021/04/28 07:07:12;;;;;;;15.10;5.00;;;10.10;9.60;;;;;;6215887;23;21037;-80
2021/04/28 07:09:43;;;;;;;18.23;5.83;;;10.20;7.70;;;;;;6223968;23;20432;-85
2021/04/28 07:12:12;;;;;;;13.80;4.97;;;10.30;7.90;;;;;;6211800;23;20404;-80
2021/04/28 07:14:38;;;;;;;28.70;5.90;;;10.40;7.40;;;;;;6192949;23;20802;-79
2021/04/28 07:17:06;;;;;;;20.50;5.57;;;10.40;4.60;;;;;;6183615;23;20483;-80
2021/04/28 07:19:34;;;;;;;14.33;5.30;;;10.50;4.00;;;;;;6184057;23;20401;-80
2021/04/28 07:22:07;;;;;;;18.90;4.60;;;10.70;6.80;;;;;;6183941;23;20450;-80
2021/04/28 07:24:34;;;;;;;13.47;5.27;;;10.80;5.60;;;;;;6182152;23;20403;-80
2021/04/28 07:27:00;;;;;;;14.30;4.60;;;11.00;5.00;;;;;;6181461;23;20901;-80
2021/04/28 07:29:27;;;;;;;16.40;4.83;;;11.10;5.20;;;;;;6183706;23;20447;-81
2021/04/28 07:31:53;;;;;;;16.43;5.03;;;11.20;5.50;;;;;;6184041;23;20404;-80
2021/04/28 07:34:20;;;;;;;19.20;5.60;;;11.30;2.20;;;;;;6184421;23;20401;-80
2021/04/28 07:36:46;;;;;;;21.50;4.33;;;11.50;1.00;;;;;;6185321;23;20405;-81
2021/04/28 07:39:13;;;;;;;18.98;5.50;;;11.60;1.90;;;;;;6195538;23;20419;-81
2021/04/28 07:41:40;;;;;;;16.07;5.50;;;11.70;1.00;;;;;;6184209;23;20233;-81
2021/04/28 07:44:09;;;;;;;17.08;5.80;;;11.90;1.70;;;;;;6184702;23;20733;-80
2021/04/28 07:46:39;;;;;;;16.03;4.53;;;12.00;1.00;;;;;;6195606;23;20161;-80
2021/04/28 07:49:13;;;;;;;16.47;5.23;;;12.20;1.00;;;;;;6185709;23;20822;-80
2021/04/28 07:51:40;;;;;;;18.10;5.97;;;12.30;1.00;;;;;;6195114;23;20516;-81
2021/04/28 07:54:06;;;;;;;17.23;5.03;;;12.60;1.00;;;;;;6185700;23;20709;-81
2021/04/28 07:56:43;;;;;;;22.17;5.77;;;12.70;1.00;;;;;;6183975;23;20405;-81
2021/04/28 07:59:11;;;;;;;19.20;4.67;;;13.20;1.00;;;;;;6185588;23;20458;-81
2021/04/28 08:01:39;;;;;;;17.57;4.60;;;13.70;1.00;;;;;;6185674;23;20423;-81
2021/04/28 08:04:09;;;;;;;21.67;5.90;;;14.00;1.00;;;;;;6195569;23;20436;-81
2021/04/28 08:06:35;;;;;;;21.00;5.20;;;14.70;1.00;;;;;;6185696;23;20405;-81
2021/04/28 08:09:04;;;;;;;26.80;5.90;;;14.80;1.00;;;;;;6195537;23;20439;-81
2021/04/28 08:11:31;;;;;;;24.50;5.50;;;15.20;1.00;;;;;;6183957;23;20394;-81
2021/04/28 08:13:58;;;;;;;24.40;5.20;;;15.40;1.00;;;;;;6217230;23;20998;-82
2021/04/28 08:16:26;;;;;;;25.13;5.10;;;15.70;1.00;;;;;;6215184;23;20438;-81
2021/04/28 08:18:52;;;;;;;30.93;6.73;;;16.10;1.00;;;;;;6215602;23;20401;-82
2021/04/28 08:21:24;;;;;;;33.93;6.40;;;16.20;1.00;;;;;;6215113;23;20396;-82
2021/04/28 08:23:51;;;;;;;27.93;5.33;;;16.50;1.00;;;;;;6215547;23;20399;-81
2021/04/28 08:26:18;;;;;;;28.97;5.37;;;16.30;1.00;;;;;;6223918;23;20404;-82
2021/04/28 08:28:46;;;;;;;28.77;5.07;;;16.30;1.00;;;;;;6147697;23;20490;-81
2021/04/28 08:31:17;;;;;;;30.77;6.30;;;16.80;1.00;;;;;;6215526;23;20721;-81
2021/04/28 08:33:44;;;;;;;28.37;5.53;;;17.00;1.00;;;;;;6215519;23;20487;-82
2021/04/28 08:36:12;;;;;;;36.50;7.13;;;16.80;1.00;;;;;;6225150;23;20404;-82
2021/04/28 08:38:47;;;;;;;32.63;5.43;;;17.40;1.00;;;;;;6225585;23;20400;-82
2021/04/28 08:41:17;;;;;;;29.70;5.80;;;17.70;1.00;;;;;;6213785;23;20447;-82
2021/04/28 08:43:49;;;;;;;30.17;5.27;;;17.80;1.00;;;;;;6215506;23;20400;-82
2021/04/28 08:46:19;;;;;;;32.60;5.70;;;17.90;1.00;;;;;;6215501;23;20407;-82
2021/04/28 08:48:49;;;;;;;35.80;6.53;;;17.90;1.00;;;;;;6225251;23;20458;-81
2021/04/28 08:51:19;;;;;;;32.40;5.17;;;18.10;1.00;;;;;;6225509;23;20409;-82
2021/04/28 08:53:49;;;;;;;34.50;5.87;;;18.50;1.00;;;;;;6225179;23;20404;-82
2021/04/28 08:56:21;;;;;;;39.67;6.70;;;19.00;1.00;;;;;;6223891;23;20396;-82
2021/04/28 08:58:56;;;;;;;35.90;6.20;;;18.70;1.00;;;;;;6215250;23;20404;-82
2021/04/28 09:01:38;;;;;;;33.93;6.17;;;19.20;1.00;;;;;;6215317;23;20446;-82
2021/04/28 09:04:14;;;;;;;38.80;6.03;;;19.40;1.00;;;;;;6225512;23;20471;-82
2021/04/28 09:06:43;;;;;;;32.90;5.00;;;19.70;1.00;;;;;;6217248;23;20458;-82
2021/04/28 09:09:12;;;;;;;37.90;5.30;;;20.10;1.00;;;;;;6217299;23;20432;-82
2021/04/28 09:11:47;;;;;;;35.90;5.93;;;19.50;1.00;;;;;;6225206;23;20450;-82
2021/04/28 09:14:24;;;;;;;37.17;6.77;;;19.90;1.00;;;;;;6216187;23;20437;-78
2021/04/28 09:17:01;;;;;;;38.20;6.70;;;20.30;1.00;;;;;;6216499;23;20407;-80
2021/04/28 09:23:02;;;;;;;36.50;5.60;;;20.30;1.00;;;;;;5983368;23;20482;-82
2021/04/28 09:25:39;;;;;;;36.10;5.20;;;20.80;1.00;;;;;;6101826;23;20987;-82
2021/04/28 09:28:28;;;;;;;41.10;5.40;;;21.40;1.00;;;;;;6216524;23;20402;-82
2021/04/28 09:31:34;;;;;;;40.90;5.50;;;21.90;1.00;;;;;;6216946;23;20709;-82
2021/04/28 09:34:01;;;;;;;41.43;6.00;;;21.70;1.00;;;;;;6217001;23;20407;-82
2021/04/28 09:36:33;;;;;;;40.07;5.20;;;21.80;1.00;;;;;;6216805;23;20400;-82
2021/04/28 09:39:02;;;;;;;41.20;5.57;;;21.90;1.00;;;;;;6227158;23;20396;-82
2021/04/28 09:41:38;;;;;;;42.70;5.30;;;22.00;1.00;;;;;;6225403;23;20456;-82
2021/04/28 09:44:29;;;;;;;41.13;5.50;;;22.50;1.00;;;;;;6226655;23;20408;-82
2021/04/28 09:47:07;;;;;;;42.93;5.73;;;22.70;1.00;;;;;;6216814;23;20401;-82
2021/04/28 09:49:55;;;;;;;42.40;5.80;;;23.20;1.00;;;;;;6216980;23;20523;-83
2021/04/28 09:52:25;;;;;;;42.77;6.10;;;23.40;1.00;;;;;;6226467;23;20986;-83
2021/04/28 09:54:54;;;;;;;43.60;5.50;;;23.30;1.00;;;;;;6226864;23;20428;-82
2021/04/28 09:57:34;;;;;;;45.40;5.27;;;23.30;1.00;;;;;;6224798;23;20396;-82
2021/04/28 10:00:03;;;;;;;44.97;5.37;;;23.60;1.00;;;;;;6216959;23;20400;-82
2021/04/28 10:02:33;;;;;;;43.87;5.80;;;22.80;1.00;;;;;;6216723;23;20379;-82
2021/04/28 10:05:28;;;;;;;44.70;6.17;;;23.20;1.00;;;;;;6226571;23;20991;-82
2021/04/28 10:08:20;;;;;;;47.37;6.30;;;23.60;1.00;;;;;;6216718;23;20401;-82
2021/04/28 10:11:10;;;;;;;47.20;6.20;;;23.60;1.00;;;;;;6224708;23;20439;-82
2021/04/28 10:13:38;;;;;;;46.40;6.17;;;24.00;1.00;;;;;;6199346;23;20461;-82
2021/04/28 10:16:21;;;;;;;46.03;5.00;;;23.90;1.00;;;;;;6216474;23;20438;-82
2021/04/28 10:18:52;;;;;;;48.63;5.80;;;24.70;1.00;;;;;;6226646;23;20428;-83
2021/04/28 10:21:21;;;;;;;53.80;5.90;;;25.30;1.00;;;;;;6226673;23;20404;-83
2021/04/28 10:24:01;;;;;;;;;;;;;;;;;;;;;
2021/04/28 10:26:43;;;;;;;45.03;4.87;;;23.50;1.00;;;;;;6214329;23;20499;-82
2021/04/28 10:29:14;;;;;;;47.43;5.20;;;23.30;1.00;;;;;;6226129;23;20439;-83
2021/04/28 10:31:47;;;;;;;44.33;5.00;;;23.20;1.00;;;;;;6226108;23;20914;-83
2021/04/28 10:34:23;;;;;;;46.20;5.20;;;23.80;1.00;;;;;;6226398;23;20412;-82
2021/04/28 10:36:54;;;;;;;47.37;5.97;;;24.10;1.00;;;;;;6226572;23;20842;-83
2021/04/28 10:39:23;;;;;;;44.80;5.30;;;23.30;1.00;;;;;;6216249;23;20404;-83
2021/04/28 10:41:53;;;;;;;46.70;5.40;;;23.80;1.00;;;;;;6224441;23;20786;-83
2021/04/28 10:44:39;;;;;;;47.30;4.93;;;24.00;1.00;;;;;;6216561;23;20405;-83
2021/04/28 10:47:30;;;;;;;46.50;5.30;;;24.40;1.00;;;;;;6227844;23;20411;-83
2021/04/28 10:50:11;;;;;;;49.63;5.90;;;23.50;1.00;;;;;;6225747;23;20943;-83
2021/04/28 10:52:43;;;;;;;47.93;5.87;;;22.80;1.00;;;;;;6216338;23;20409;-83
2021/04/28 10:55:40;;;;;;;48.10;5.07;;;23.60;1.00;;;;;;6215828;23;20397;-83
2021/04/28 10:58:41;;;;;;;45.77;6.27;;;24.40;1.00;;;;;;6225888;23;20453;-83
2021/04/28 11:01:27;;;;;;;48.00;6.53;;;24.90;1.00;;;;;;6207773;23;20442;-83
2021/04/28 11:03:58;;;;;;;47.53;5.33;;;24.30;1.00;;;;;;6225719;23;20438;-83
2021/04/28 11:06:49;;;;;;;48.00;5.73;;;24.80;1.00;;;;;;6216883;23;20415;-82
2021/04/28 11:09:20;;;;;;;47.20;5.63;;;25.40;1.00;;;;;;6216105;23;20896;-83
2021/04/28 11:11:52;;;;;;;50.53;6.83;;;26.00;1.00;;;;;;6224189;23;20408;-83
2021/04/28 11:14:31;;;;;;;48.57;6.53;;;26.50;1.00;;;;;;6215911;23;20435;-83
2021/04/28 11:17:00;;;;;;;50.97;8.70;;;26.10;1.00;;;;;;6216074;23;20400;-83
2021/04/28 11:19:29;;;;;;;52.50;8.63;;;26.40;1.00;;;;;;6215285;23;20407;-84
2021/04/28 11:22:11;;;;;;;55.63;8.90;;;26.50;1.00;;;;;;6224900;23;20408;-78
2021/04/28 11:25:02;;;;;;;53.67;9.53;;;26.20;1.00;;;;;;6210564;23;20419;-77
2021/04/28 11:28:01;;;;;;;53.90;8.37;;;27.20;1.00;;;;;;6214264;23;20406;-83
2021/04/28 11:30:39;;;;;;;55.90;7.70;;;27.40;1.00;;;;;;6223321;23;20436;-84
2021/04/28 11:33:39;;;;;;;52.70;8.50;;;26.80;1.00;;;;;;6224737;23;20488;-89
2021/04/28 11:36:09;;;;;;;56.93;10.13;;;25.30;1.00;;;;;;6215690;23;20462;-86
2021/04/28 11:38:38;;;;;;;53.90;8.37;;;24.90;1.00;;;;;;6215622;23;20407;-85
2021/04/28 11:41:08;;;;;;;54.53;8.27;;;25.40;1.00;;;;;;6214102;23;20403;-83
2021/04/28 11:43:36;;;;;;;51.63;8.00;;;26.70;1.00;;;;;;6211961;23;20446;-84
2021/04/28 11:46:04;;;;;;;58.30;11.13;;;26.00;1.00;;;;;;6213282;23;20475;-82
2021/04/28 11:48:32;;;;;;;56.00;9.90;;;26.30;1.00;;;;;;6213552;23;20410;-84
2021/04/28 11:51:01;;;;;;;49.97;6.93;;;27.10;1.00;;;;;;6213466;23;20471;-83
2021/04/28 11:53:29;;;;;;;54.70;9.20;;;26.60;1.00;;;;;;6213831;23;20404;-84
2021/04/28 11:55:56;;;;;;;58.97;10.80;;;27.00;1.00;;;;;;6212401;23;20404;-85
2021/04/28 11:58:27;;;;;;;57.13;10.30;;;27.00;1.00;;;;;;6183707;23;20397;-86
2021/04/28 12:01:07;;;;;;;52.47;8.40;;;27.30;1.00;;;;;;6183913;23;20400;-87
2021/04/28 12:03:59;;;;;;;49.97;7.63;;;27.70;1.00;;;;;;6183846;23;20944;-82
2021/04/28 12:06:38;;;;;;;50.53;7.97;;;26.40;1.00;;;;;;6184435;23;20404;-90
2021/04/28 12:09:23;;;;;;;51.50;7.60;;;25.60;1.00;;;;;;6183186;23;20957;-81
2021/04/28 12:12:05;;;;;;;48.90;7.57;;;25.80;1.00;;;;;;6182985;23;20435;-80
2021/04/28 12:14:32;;;;;;;51.50;7.10;;;26.20;1.00;;;;;;6184609;23;20437;-81
2021/04/28 12:16:59;;;;;;;48.67;7.10;;;26.30;1.00;;;;;;6185468;23;20425;-80
2021/04/28 12:19:26;;;;;;;49.97;6.97;;;25.80;1.00;;;;;;6195009;23;20500;-80
2021/04/28 12:21:57;;;;;;;55.00;7.40;;;25.90;1.00;;;;;;6185531;23;20487;-80
2021/04/28 12:24:31;;;;;;;51.67;7.73;;;27.00;1.00;;;;;;6185131;23;20476;-80
2021/04/28 12:27:09;;;;;;;51.53;7.90;;;27.50;1.00;;;;;;6183718;23;20476;-80
2021/04/28 12:29:38;;;;;;;50.00;6.83;;;28.30;1.00;;;;;;6194985;23;20406;-81
2021/04/28 12:32:07;;;;;;;54.50;6.47;;;28.80;1.00;;;;;;6185392;23;20401;-81
2021/04/28 12:34:35;;;;;;;52.20;6.63;;;28.30;1.00;;;;;;6185063;23;20439;-82
2021/04/28 12:37:23;;;;;;;53.60;6.47;;;27.90;1.00;;;;;;6194996;23;20459;-82
2021/04/28 12:39:53;;;;;;;50.77;6.83;;;27.10;1.00;;;;;;6182000;23;20433;-81
2021/04/28 12:42:38;;;;;;;50.90;6.47;;;27.80;1.00;;;;;;6195554;23;20383;-81
2021/04/28 12:45:11;;;;;;;53.60;8.60;;;27.20;1.00;;;;;;6187076;23;20405;-81
2021/04/28 12:47:38;;;;;;;52.10;7.30;;;26.90;1.00;;;;;;6187343;23;20480;-80
2021/04/28 12:50:11;;;;;;;51.83;7.43;;;27.20;1.00;;;;;;6187327;23;20433;-81
2021/04/28 12:52:40;;;;;;;53.60;8.30;;;27.40;1.00;;;;;;6197119;23;20689;-84
2021/04/28 12:55:27;;;;;;;53.40;7.70;;;27.40;1.00;;;;;;6186946;23;20401;-81
2021/04/28 12:57:56;;;;;;;53.00;8.00;;;26.40;1.00;;;;;;6196891;23;20748;-80
2021/04/28 13:00:24;;;;;;;54.03;9.17;;;25.60;1.00;;;;;;6186644;23;20464;-79
2021/04/28 13:03:08;;;;;;;52.40;8.10;;;25.60;1.00;;;;;;6187059;23;20519;-80
2021/04/28 13:05:36;;;;;;;49.00;7.40;;;26.20;1.00;;;;;;6187180;23;20450;-79
2021/04/28 13:08:30;;;;;;;48.23;7.43;;;27.70;1.00;;;;;;6186767;23;20877;-81
2021/04/28 13:11:11;;;;;;;49.30;6.33;;;27.90;1.00;;;;;;6185633;23;20484;-80
2021/04/28 13:13:40;;;;;;;50.10;6.57;;;27.90;1.00;;;;;;6186421;23;20715;-79
2021/04/28 13:16:37;;;;;;;51.60;6.83;;;27.60;1.00;;;;;;6186621;23;20379;-79
2021/04/28 13:19:07;;;;;;;50.53;5.50;;;28.90;1.00;;;;;;6186362;23;20408;-80
2021/04/28 13:21:35;;;;;;;49.87;5.67;;;28.50;1.00;;;;;;6187055;23;20401;-80
2021/04/28 13:24:14;;;;;;;53.67;6.23;;;28.20;1.00;;;;;;6186794;23;20488;-80
2021/04/28 13:26:43;;;;;;;49.70;5.17;;;27.60;1.00;;;;;;6197002;23;20409;-79
2021/04/28 13:29:11;;;;;;;49.73;5.67;;;26.00;1.00;;;;;;6197051;23;21140;-80
2021/04/28 13:31:42;;;;;;;48.53;5.27;;;26.70;1.00;;;;;;6186418;23;20408;-80
2021/04/28 13:34:23;;;;;;;49.83;4.90;;;27.80;1.00;;;;;;6186688;23;20488;-79
2021/04/28 13:36:49;;;;;;;48.07;5.97;;;28.00;1.00;;;;;;6186810;23;20379;-77
2021/04/28 13:39:25;;;;;;;48.97;5.20;;;27.50;1.00;;;;;;6186653;23;20781;-77
2021/04/28 13:41:57;;;;;;;50.20;5.77;;;28.20;1.00;;;;;;6184991;23;20484;-77
2021/04/28 13:44:24;;;;;;;51.23;5.50;;;28.80;1.00;;;;;;6186933;23;20401;-77
2021/04/28 13:46:54;;;;;;;52.27;6.13;;;29.10;1.00;;;;;;6186443;23;20450;-78
2021/04/28 13:49:20;;;;;;;52.63;5.80;;;28.70;1.00;;;;;;6186428;23;20425;-76
2021/04/28 13:51:52;;;;;;;52.63;6.13;;;28.10;1.00;;;;;;6185976;23;20372;-78
2021/04/28 13:54:18;;;;;;;59.97;6.80;;;28.60;1.00;;;;;;6186479;23;20820;-79
2021/04/28 13:56:45;;;;;;;51.67;6.20;;;28.30;1.00;;;;;;6186213;23;20405;-77
2021/04/28 13:59:12;;;;;;;51.70;6.00;;;28.80;1.00;;;;;;6186488;23;20412;-78
2021/04/28 14:01:38;;;;;;;51.87;6.23;;;28.60;1.00;;;;;;6186560;23;20459;-77
2021/04/28 14:04:05;;;;;;;54.10;6.07;;;28.60;1.00;;;;;;6186536;23;20437;-78
2021/04/28 14:06:32;;;;;;;51.47;5.20;;;28.60;1.00;;;;;;6186479;23;20686;-77
2021/04/28 14:09:00;;;;;;;55.03;6.50;;;29.10;1.00;;;;;;6185927;23;20462;-79
2021/04/28 14:11:26;;;;;;;54.63;5.50;;;28.90;1.00;;;;;;6184698;23;20741;-81
2021/04/28 14:13:52;;;;;;;54.60;5.80;;;29.20;1.00;;;;;;6185600;23;20579;-79
2021/04/28 14:16:19;;;;;;;52.87;6.00;;;28.20;1.00;;;;;;6185982;23;20489;-80
2021/04/28 14:18:46;;;;;;;51.30;6.43;;;26.20;1.00;;;;;;6185790;23;20397;-79
2021/04/28 14:21:14;;;;;;;53.20;6.73;;;26.10;1.00;;;;;;6186192;23;20411;-81
2021/04/28 14:23:40;;;;;;;53.80;6.67;;;25.80;1.00;;;;;;6186221;23;20428;-79
2021/04/28 14:26:07;;;;;;;51.00;6.53;;;26.10;1.00;;;;;;6184089;23;20378;-79
2021/04/28 14:28:35;;;;;;;50.70;7.07;;;25.70;1.00;;;;;;6185746;23;20436;-81
2021/04/28 14:31:01;;;;;;;48.43;7.13;;;25.10;1.00;;;;;;6185787;23;20443;-82
2021/04/28 14:33:28;;;;;;;45.70;5.70;;;24.70;1.00;;;;;;6185819;23;20405;-81
2021/04/28 14:35:54;;;;;;;46.13;5.37;;;25.70;1.00;;;;;;6186300;23;20405;-81
2021/04/28 14:38:23;;;;;;;49.07;6.50;;;26.90;1.00;;;;;;6195747;23;20969;-79
2021/04/28 14:40:50;;;;;;;46.20;7.00;;;26.70;1.00;;;;;;6184653;23;20414;-80
2021/04/28 14:43:17;;;;;;;47.00;6.63;;;25.80;1.00;;;;;;6185843;23;20856;-79
2021/04/28 14:45:43;;;;;;;46.00;6.00;;;25.60;1.00;;;;;;6186139;23;20443;-80
2021/04/28 14:48:09;;;;;;;46.43;6.23;;;26.00;1.00;;;;;;6185838;23;20463;-78